<?xml version="1.0" encoding="UTF-8" standalone="no" ?>
<gpx xmlns="http://www.topografix.com/GPX/1/1" xmlns:xsi="http://www.w3.org/2001/XMLSchema-instance" xsi:schemaLocation="http://www.topografix.com/GPX/1/1 http://www.topografix.com/GPX/1/1/gpx.xsd" version="1.1" creator="VisuGPX - https://www.visugpx.com">
  <metadata>
    <name>Foy AN ATH</name>
    <desc><![CDATA[DERNIER CIRCUIT DU W-E ORGANISE PAR LES AMIS DE LA NATURE DE ATH 16/17/18 SEPTEMBRE]]></desc>
  </metadata>
  <trk>
    <name><![CDATA[2016-09-18 15:48:17]]></name>
    <trkseg>
      <trkpt lat="50.04416" lon="5.75074">
        <ele>512.52</ele>
        <time>2016-09-18T11:42:52Z</time>
      </trkpt>
      <trkpt lat="50.04415" lon="5.75074">
        <ele>512.52</ele>
        <time>2016-09-18T11:42:53Z</time>
      </trkpt>
      <trkpt lat="50.04413" lon="5.75076">
        <ele>511.56</ele>
        <time>2016-09-18T11:43:15Z</time>
      </trkpt>
      <trkpt lat="50.04412" lon="5.75076">
        <ele>513</ele>
        <time>2016-09-18T11:43:20Z</time>
      </trkpt>
      <trkpt lat="50.04416" lon="5.75086">
        <ele>513</ele>
        <time>2016-09-18T11:43:30Z</time>
      </trkpt>
      <trkpt lat="50.04427" lon="5.75106">
        <ele>511.56</ele>
        <time>2016-09-18T11:43:46Z</time>
      </trkpt>
      <trkpt lat="50.0443" lon="5.75113">
        <ele>511.56</ele>
        <time>2016-09-18T11:43:51Z</time>
      </trkpt>
      <trkpt lat="50.04435" lon="5.7512">
        <ele>511.08</ele>
        <time>2016-09-18T11:43:57Z</time>
      </trkpt>
      <trkpt lat="50.04446" lon="5.75139">
        <ele>510.6</ele>
        <time>2016-09-18T11:44:12Z</time>
      </trkpt>
      <trkpt lat="50.04447" lon="5.75142">
        <ele>510.6</ele>
        <time>2016-09-18T11:44:15Z</time>
      </trkpt>
      <trkpt lat="50.04453" lon="5.75152">
        <ele>510.6</ele>
        <time>2016-09-18T11:44:22Z</time>
      </trkpt>
      <trkpt lat="50.04455" lon="5.75156">
        <ele>510.6</ele>
        <time>2016-09-18T11:44:26Z</time>
      </trkpt>
      <trkpt lat="50.04458" lon="5.75162">
        <ele>510.6</ele>
        <time>2016-09-18T11:44:30Z</time>
      </trkpt>
      <trkpt lat="50.04465" lon="5.75174">
        <ele>510.12</ele>
        <time>2016-09-18T11:44:38Z</time>
      </trkpt>
      <trkpt lat="50.04474" lon="5.75192">
        <ele>510.12</ele>
        <time>2016-09-18T11:44:52Z</time>
      </trkpt>
      <trkpt lat="50.04479" lon="5.752">
        <ele>510.12</ele>
        <time>2016-09-18T11:44:58Z</time>
      </trkpt>
      <trkpt lat="50.04483" lon="5.75208">
        <ele>510.12</ele>
        <time>2016-09-18T11:45:04Z</time>
      </trkpt>
      <trkpt lat="50.04496" lon="5.7523">
        <ele>509.64</ele>
        <time>2016-09-18T11:45:20Z</time>
      </trkpt>
      <trkpt lat="50.04498" lon="5.75233">
        <ele>509.64</ele>
        <time>2016-09-18T11:45:23Z</time>
      </trkpt>
      <trkpt lat="50.04509" lon="5.75255">
        <ele>509.16</ele>
        <time>2016-09-18T11:45:38Z</time>
      </trkpt>
      <trkpt lat="50.0452" lon="5.75274">
        <ele>509.16</ele>
        <time>2016-09-18T11:45:52Z</time>
      </trkpt>
      <trkpt lat="50.04522" lon="5.75279">
        <ele>509.16</ele>
        <time>2016-09-18T11:45:56Z</time>
      </trkpt>
      <trkpt lat="50.04526" lon="5.75297">
        <ele>509.16</ele>
        <time>2016-09-18T11:46:08Z</time>
      </trkpt>
      <trkpt lat="50.04525" lon="5.753">
        <ele>509.16</ele>
        <time>2016-09-18T11:46:10Z</time>
      </trkpt>
      <trkpt lat="50.04518" lon="5.75324">
        <ele>509.16</ele>
        <time>2016-09-18T11:46:25Z</time>
      </trkpt>
      <trkpt lat="50.04512" lon="5.75346">
        <ele>508.67</ele>
        <time>2016-09-18T11:46:39Z</time>
      </trkpt>
      <trkpt lat="50.04501" lon="5.75367">
        <ele>508.19</ele>
        <time>2016-09-18T11:46:54Z</time>
      </trkpt>
      <trkpt lat="50.04491" lon="5.7538">
        <ele>507.23</ele>
        <time>2016-09-18T11:47:05Z</time>
      </trkpt>
      <trkpt lat="50.04475" lon="5.7539">
        <ele>506.27</ele>
        <time>2016-09-18T11:47:19Z</time>
      </trkpt>
      <trkpt lat="50.04459" lon="5.75401">
        <ele>505.31</ele>
        <time>2016-09-18T11:47:34Z</time>
      </trkpt>
      <trkpt lat="50.0445" lon="5.7541">
        <ele>504.83</ele>
        <time>2016-09-18T11:47:44Z</time>
      </trkpt>
      <trkpt lat="50.0444" lon="5.75419">
        <ele>504.83</ele>
        <time>2016-09-18T11:47:53Z</time>
      </trkpt>
      <trkpt lat="50.04424" lon="5.75432">
        <ele>504.83</ele>
        <time>2016-09-18T11:48:10Z</time>
      </trkpt>
      <trkpt lat="50.04416" lon="5.7544">
        <ele>504.83</ele>
        <time>2016-09-18T11:48:23Z</time>
      </trkpt>
      <trkpt lat="50.04412" lon="5.7544">
        <ele>504.83</ele>
        <time>2016-09-18T11:48:31Z</time>
      </trkpt>
      <trkpt lat="50.04397" lon="5.75457">
        <ele>504.83</ele>
        <time>2016-09-18T11:48:46Z</time>
      </trkpt>
      <trkpt lat="50.04387" lon="5.7548">
        <ele>504.83</ele>
        <time>2016-09-18T11:49:01Z</time>
      </trkpt>
      <trkpt lat="50.04375" lon="5.75501">
        <ele>504.83</ele>
        <time>2016-09-18T11:49:17Z</time>
      </trkpt>
      <trkpt lat="50.0437" lon="5.75509">
        <ele>506.27</ele>
        <time>2016-09-18T11:49:23Z</time>
      </trkpt>
      <trkpt lat="50.0436" lon="5.75526">
        <ele>506.27</ele>
        <time>2016-09-18T11:49:37Z</time>
      </trkpt>
      <trkpt lat="50.04355" lon="5.75533">
        <ele>506.75</ele>
        <time>2016-09-18T11:49:43Z</time>
      </trkpt>
      <trkpt lat="50.04339" lon="5.75548">
        <ele>507.23</ele>
        <time>2016-09-18T11:49:59Z</time>
      </trkpt>
      <trkpt lat="50.04335" lon="5.75552">
        <ele>507.71</ele>
        <time>2016-09-18T11:50:03Z</time>
      </trkpt>
      <trkpt lat="50.04321" lon="5.75566">
        <ele>508.19</ele>
        <time>2016-09-18T11:50:18Z</time>
      </trkpt>
      <trkpt lat="50.04305" lon="5.75578">
        <ele>508.67</ele>
        <time>2016-09-18T11:50:33Z</time>
      </trkpt>
      <trkpt lat="50.0429" lon="5.75587">
        <ele>509.16</ele>
        <time>2016-09-18T11:50:49Z</time>
      </trkpt>
      <trkpt lat="50.04272" lon="5.75595">
        <ele>510.12</ele>
        <time>2016-09-18T11:51:04Z</time>
      </trkpt>
      <trkpt lat="50.04257" lon="5.75599">
        <ele>510.12</ele>
        <time>2016-09-18T11:51:18Z</time>
      </trkpt>
      <trkpt lat="50.0424" lon="5.75602">
        <ele>510.6</ele>
        <time>2016-09-18T11:51:33Z</time>
      </trkpt>
      <trkpt lat="50.04219" lon="5.75607">
        <ele>511.08</ele>
        <time>2016-09-18T11:51:50Z</time>
      </trkpt>
      <trkpt lat="50.04199" lon="5.75611">
        <ele>511.56</ele>
        <time>2016-09-18T11:52:07Z</time>
      </trkpt>
      <trkpt lat="50.04181" lon="5.75614">
        <ele>511.56</ele>
        <time>2016-09-18T11:52:22Z</time>
      </trkpt>
      <trkpt lat="50.04164" lon="5.7562">
        <ele>512.04</ele>
        <time>2016-09-18T11:52:37Z</time>
      </trkpt>
      <trkpt lat="50.04145" lon="5.75619">
        <ele>512.04</ele>
        <time>2016-09-18T11:52:52Z</time>
      </trkpt>
      <trkpt lat="50.04125" lon="5.75617">
        <ele>512.04</ele>
        <time>2016-09-18T11:53:08Z</time>
      </trkpt>
      <trkpt lat="50.04106" lon="5.75614">
        <ele>512.04</ele>
        <time>2016-09-18T11:53:24Z</time>
      </trkpt>
      <trkpt lat="50.04088" lon="5.75611">
        <ele>512.04</ele>
        <time>2016-09-18T11:53:39Z</time>
      </trkpt>
      <trkpt lat="50.04065" lon="5.75609">
        <ele>511.08</ele>
        <time>2016-09-18T11:53:57Z</time>
      </trkpt>
      <trkpt lat="50.04047" lon="5.75614">
        <ele>510.6</ele>
        <time>2016-09-18T11:54:11Z</time>
      </trkpt>
      <trkpt lat="50.04036" lon="5.75623">
        <ele>510.6</ele>
        <time>2016-09-18T11:54:22Z</time>
      </trkpt>
      <trkpt lat="50.04022" lon="5.75632">
        <ele>510.6</ele>
        <time>2016-09-18T11:54:35Z</time>
      </trkpt>
      <trkpt lat="50.04021" lon="5.75633">
        <ele>510.6</ele>
        <time>2016-09-18T11:54:36Z</time>
      </trkpt>
      <trkpt lat="50.0402" lon="5.75634">
        <ele>510.6</ele>
        <time>2016-09-18T11:54:37Z</time>
      </trkpt>
      <trkpt lat="50.04019" lon="5.75635">
        <ele>510.6</ele>
        <time>2016-09-18T11:54:38Z</time>
      </trkpt>
      <trkpt lat="50.04018" lon="5.75635">
        <ele>510.6</ele>
        <time>2016-09-18T11:54:39Z</time>
      </trkpt>
      <trkpt lat="50.04016" lon="5.75636">
        <ele>510.6</ele>
        <time>2016-09-18T11:54:40Z</time>
      </trkpt>
      <trkpt lat="50.04015" lon="5.75636">
        <ele>510.6</ele>
        <time>2016-09-18T11:54:41Z</time>
      </trkpt>
      <trkpt lat="50.04005" lon="5.75642">
        <ele>511.56</ele>
        <time>2016-09-18T11:54:51Z</time>
      </trkpt>
      <trkpt lat="50.0399" lon="5.75653">
        <ele>512.52</ele>
        <time>2016-09-18T11:55:06Z</time>
      </trkpt>
      <trkpt lat="50.03975" lon="5.75662">
        <ele>513.96</ele>
        <time>2016-09-18T11:55:21Z</time>
      </trkpt>
      <trkpt lat="50.03961" lon="5.7567">
        <ele>514.92</ele>
        <time>2016-09-18T11:55:35Z</time>
      </trkpt>
      <trkpt lat="50.03954" lon="5.75675">
        <ele>515.4</ele>
        <time>2016-09-18T11:55:43Z</time>
      </trkpt>
      <trkpt lat="50.03953" lon="5.75675">
        <ele>515.4</ele>
        <time>2016-09-18T11:55:44Z</time>
      </trkpt>
      <trkpt lat="50.03952" lon="5.75676">
        <ele>515.4</ele>
        <time>2016-09-18T11:55:45Z</time>
      </trkpt>
      <trkpt lat="50.03951" lon="5.75677">
        <ele>515.4</ele>
        <time>2016-09-18T11:55:46Z</time>
      </trkpt>
      <trkpt lat="50.0395" lon="5.75677">
        <ele>515.4</ele>
        <time>2016-09-18T11:55:47Z</time>
      </trkpt>
      <trkpt lat="50.03936" lon="5.75687">
        <ele>516.37</ele>
        <time>2016-09-18T11:56:01Z</time>
      </trkpt>
      <trkpt lat="50.0392" lon="5.757">
        <ele>517.81</ele>
        <time>2016-09-18T11:56:17Z</time>
      </trkpt>
      <trkpt lat="50.03908" lon="5.75716">
        <ele>518.77</ele>
        <time>2016-09-18T11:56:32Z</time>
      </trkpt>
      <trkpt lat="50.03895" lon="5.75734">
        <ele>519.73</ele>
        <time>2016-09-18T11:56:47Z</time>
      </trkpt>
      <trkpt lat="50.03885" lon="5.75752">
        <ele>520.69</ele>
        <time>2016-09-18T11:57:01Z</time>
      </trkpt>
      <trkpt lat="50.03876" lon="5.7577">
        <ele>521.17</ele>
        <time>2016-09-18T11:57:16Z</time>
      </trkpt>
      <trkpt lat="50.03872" lon="5.75778">
        <ele>521.65</ele>
        <time>2016-09-18T11:57:29Z</time>
      </trkpt>
      <trkpt lat="50.03866" lon="5.75788">
        <ele>522.13</ele>
        <time>2016-09-18T11:57:41Z</time>
      </trkpt>
      <trkpt lat="50.0386" lon="5.75797">
        <ele>523.09</ele>
        <time>2016-09-18T11:57:55Z</time>
      </trkpt>
      <trkpt lat="50.0386" lon="5.75795">
        <ele>523.09</ele>
        <time>2016-09-18T11:58:11Z</time>
      </trkpt>
      <trkpt lat="50.03861" lon="5.75792">
        <ele>523.09</ele>
        <time>2016-09-18T11:58:26Z</time>
      </trkpt>
      <trkpt lat="50.03858" lon="5.75796">
        <ele>523.09</ele>
        <time>2016-09-18T11:58:30Z</time>
      </trkpt>
      <trkpt lat="50.03851" lon="5.75806">
        <ele>523.09</ele>
        <time>2016-09-18T11:58:39Z</time>
      </trkpt>
      <trkpt lat="50.0385" lon="5.75807">
        <ele>523.09</ele>
        <time>2016-09-18T11:58:40Z</time>
      </trkpt>
      <trkpt lat="50.03833" lon="5.75829">
        <ele>523.58</ele>
        <time>2016-09-18T11:58:57Z</time>
      </trkpt>
      <trkpt lat="50.03818" lon="5.75853">
        <ele>523.58</ele>
        <time>2016-09-18T11:59:13Z</time>
      </trkpt>
      <trkpt lat="50.03802" lon="5.75874">
        <ele>523.58</ele>
        <time>2016-09-18T11:59:29Z</time>
      </trkpt>
      <trkpt lat="50.03786" lon="5.75894">
        <ele>523.58</ele>
        <time>2016-09-18T11:59:44Z</time>
      </trkpt>
      <trkpt lat="50.03771" lon="5.75915">
        <ele>523.58</ele>
        <time>2016-09-18T11:59:59Z</time>
      </trkpt>
      <trkpt lat="50.03757" lon="5.75937">
        <ele>523.58</ele>
        <time>2016-09-18T12:00:15Z</time>
      </trkpt>
      <trkpt lat="50.03746" lon="5.7596">
        <ele>523.58</ele>
        <time>2016-09-18T12:00:29Z</time>
      </trkpt>
      <trkpt lat="50.03745" lon="5.75962">
        <ele>523.58</ele>
        <time>2016-09-18T12:00:30Z</time>
      </trkpt>
      <trkpt lat="50.03734" lon="5.75991">
        <ele>523.58</ele>
        <time>2016-09-18T12:00:47Z</time>
      </trkpt>
      <trkpt lat="50.03727" lon="5.76011">
        <ele>523.58</ele>
        <time>2016-09-18T12:00:58Z</time>
      </trkpt>
      <trkpt lat="50.0372" lon="5.76037">
        <ele>524.06</ele>
        <time>2016-09-18T12:01:13Z</time>
      </trkpt>
      <trkpt lat="50.03715" lon="5.76062">
        <ele>524.54</ele>
        <time>2016-09-18T12:01:28Z</time>
      </trkpt>
      <trkpt lat="50.03715" lon="5.76064">
        <ele>524.54</ele>
        <time>2016-09-18T12:01:29Z</time>
      </trkpt>
      <trkpt lat="50.03713" lon="5.76074">
        <ele>524.06</ele>
        <time>2016-09-18T12:01:43Z</time>
      </trkpt>
      <trkpt lat="50.03712" lon="5.76076">
        <ele>524.06</ele>
        <time>2016-09-18T12:01:48Z</time>
      </trkpt>
      <trkpt lat="50.03711" lon="5.76084">
        <ele>524.06</ele>
        <time>2016-09-18T12:01:54Z</time>
      </trkpt>
      <trkpt lat="50.03707" lon="5.76105">
        <ele>524.54</ele>
        <time>2016-09-18T12:02:07Z</time>
      </trkpt>
      <trkpt lat="50.03706" lon="5.76114">
        <ele>524.54</ele>
        <time>2016-09-18T12:02:12Z</time>
      </trkpt>
      <trkpt lat="50.03703" lon="5.76146">
        <ele>525.02</ele>
        <time>2016-09-18T12:02:28Z</time>
      </trkpt>
      <trkpt lat="50.03699" lon="5.76175">
        <ele>525.98</ele>
        <time>2016-09-18T12:02:44Z</time>
      </trkpt>
      <trkpt lat="50.03699" lon="5.76177">
        <ele>525.98</ele>
        <time>2016-09-18T12:02:45Z</time>
      </trkpt>
      <trkpt lat="50.03695" lon="5.76204">
        <ele>526.46</ele>
        <time>2016-09-18T12:03:01Z</time>
      </trkpt>
      <trkpt lat="50.03694" lon="5.76207">
        <ele>526.46</ele>
        <time>2016-09-18T12:03:03Z</time>
      </trkpt>
      <trkpt lat="50.03692" lon="5.76226">
        <ele>526.94</ele>
        <time>2016-09-18T12:03:14Z</time>
      </trkpt>
      <trkpt lat="50.03686" lon="5.76247">
        <ele>527.42</ele>
        <time>2016-09-18T12:03:26Z</time>
      </trkpt>
      <trkpt lat="50.0368" lon="5.76272">
        <ele>527.9</ele>
        <time>2016-09-18T12:03:40Z</time>
      </trkpt>
      <trkpt lat="50.03678" lon="5.76279">
        <ele>528.38</ele>
        <time>2016-09-18T12:03:52Z</time>
      </trkpt>
      <trkpt lat="50.03676" lon="5.76277">
        <ele>528.38</ele>
        <time>2016-09-18T12:04:10Z</time>
      </trkpt>
      <trkpt lat="50.03672" lon="5.76278">
        <ele>528.38</ele>
        <time>2016-09-18T12:04:20Z</time>
      </trkpt>
      <trkpt lat="50.03659" lon="5.76272">
        <ele>528.86</ele>
        <time>2016-09-18T12:04:34Z</time>
      </trkpt>
      <trkpt lat="50.03657" lon="5.76271">
        <ele>528.86</ele>
        <time>2016-09-18T12:04:36Z</time>
      </trkpt>
      <trkpt lat="50.03653" lon="5.76269">
        <ele>528.86</ele>
        <time>2016-09-18T12:04:40Z</time>
      </trkpt>
      <trkpt lat="50.0364" lon="5.76259">
        <ele>529.34</ele>
        <time>2016-09-18T12:04:54Z</time>
      </trkpt>
      <trkpt lat="50.03626" lon="5.7625">
        <ele>529.82</ele>
        <time>2016-09-18T12:05:06Z</time>
      </trkpt>
      <trkpt lat="50.03614" lon="5.7624">
        <ele>530.3</ele>
        <time>2016-09-18T12:05:20Z</time>
      </trkpt>
      <trkpt lat="50.03603" lon="5.76229">
        <ele>530.79</ele>
        <time>2016-09-18T12:05:33Z</time>
      </trkpt>
      <trkpt lat="50.03591" lon="5.76217">
        <ele>532.23</ele>
        <time>2016-09-18T12:05:46Z</time>
      </trkpt>
      <trkpt lat="50.03582" lon="5.76202">
        <ele>533.19</ele>
        <time>2016-09-18T12:06:00Z</time>
      </trkpt>
      <trkpt lat="50.0358" lon="5.76197">
        <ele>533.19</ele>
        <time>2016-09-18T12:06:05Z</time>
      </trkpt>
      <trkpt lat="50.03568" lon="5.76182">
        <ele>534.15</ele>
        <time>2016-09-18T12:06:19Z</time>
      </trkpt>
      <trkpt lat="50.03553" lon="5.76172">
        <ele>534.63</ele>
        <time>2016-09-18T12:06:31Z</time>
      </trkpt>
      <trkpt lat="50.03539" lon="5.76156">
        <ele>535.11</ele>
        <time>2016-09-18T12:06:45Z</time>
      </trkpt>
      <trkpt lat="50.03528" lon="5.76149">
        <ele>536.55</ele>
        <time>2016-09-18T12:06:58Z</time>
      </trkpt>
      <trkpt lat="50.0352" lon="5.76141">
        <ele>537.51</ele>
        <time>2016-09-18T12:07:10Z</time>
      </trkpt>
      <trkpt lat="50.0351" lon="5.76132">
        <ele>537.99</ele>
        <time>2016-09-18T12:07:26Z</time>
      </trkpt>
      <trkpt lat="50.03498" lon="5.76122">
        <ele>538.96</ele>
        <time>2016-09-18T12:07:41Z</time>
      </trkpt>
      <trkpt lat="50.03482" lon="5.7611">
        <ele>539.44</ele>
        <time>2016-09-18T12:07:55Z</time>
      </trkpt>
      <trkpt lat="50.03474" lon="5.76098">
        <ele>540.4</ele>
        <time>2016-09-18T12:08:07Z</time>
      </trkpt>
      <trkpt lat="50.03464" lon="5.76081">
        <ele>540.88</ele>
        <time>2016-09-18T12:08:22Z</time>
      </trkpt>
      <trkpt lat="50.03458" lon="5.76069">
        <ele>541.36</ele>
        <time>2016-09-18T12:08:34Z</time>
      </trkpt>
      <trkpt lat="50.03457" lon="5.76056">
        <ele>541.84</ele>
        <time>2016-09-18T12:08:41Z</time>
      </trkpt>
      <trkpt lat="50.03454" lon="5.76042">
        <ele>542.32</ele>
        <time>2016-09-18T12:08:48Z</time>
      </trkpt>
      <trkpt lat="50.03451" lon="5.76031">
        <ele>542.8</ele>
        <time>2016-09-18T12:08:55Z</time>
      </trkpt>
      <trkpt lat="50.03447" lon="5.7602">
        <ele>543.28</ele>
        <time>2016-09-18T12:09:02Z</time>
      </trkpt>
      <trkpt lat="50.03443" lon="5.76004">
        <ele>543.28</ele>
        <time>2016-09-18T12:09:10Z</time>
      </trkpt>
      <trkpt lat="50.03434" lon="5.7598">
        <ele>544.72</ele>
        <time>2016-09-18T12:09:24Z</time>
      </trkpt>
      <trkpt lat="50.03428" lon="5.75965">
        <ele>544.72</ele>
        <time>2016-09-18T12:09:35Z</time>
      </trkpt>
      <trkpt lat="50.03418" lon="5.75952">
        <ele>544.72</ele>
        <time>2016-09-18T12:09:46Z</time>
      </trkpt>
      <trkpt lat="50.03409" lon="5.75938">
        <ele>544.72</ele>
        <time>2016-09-18T12:09:58Z</time>
      </trkpt>
      <trkpt lat="50.03401" lon="5.75925">
        <ele>544.72</ele>
        <time>2016-09-18T12:10:09Z</time>
      </trkpt>
      <trkpt lat="50.0339" lon="5.75914">
        <ele>544.72</ele>
        <time>2016-09-18T12:10:21Z</time>
      </trkpt>
      <trkpt lat="50.03387" lon="5.75911">
        <ele>544.72</ele>
        <time>2016-09-18T12:10:24Z</time>
      </trkpt>
      <trkpt lat="50.0338" lon="5.75902">
        <ele>543.28</ele>
        <time>2016-09-18T12:10:33Z</time>
      </trkpt>
      <trkpt lat="50.0337" lon="5.75888">
        <ele>542.8</ele>
        <time>2016-09-18T12:10:44Z</time>
      </trkpt>
      <trkpt lat="50.03359" lon="5.75872">
        <ele>542.32</ele>
        <time>2016-09-18T12:10:58Z</time>
      </trkpt>
      <trkpt lat="50.03353" lon="5.75864">
        <ele>541.36</ele>
        <time>2016-09-18T12:11:07Z</time>
      </trkpt>
      <trkpt lat="50.03346" lon="5.75851">
        <ele>540.88</ele>
        <time>2016-09-18T12:11:20Z</time>
      </trkpt>
      <trkpt lat="50.03342" lon="5.7584">
        <ele>540.4</ele>
        <time>2016-09-18T12:11:32Z</time>
      </trkpt>
      <trkpt lat="50.03335" lon="5.75828">
        <ele>539.92</ele>
        <time>2016-09-18T12:11:42Z</time>
      </trkpt>
      <trkpt lat="50.03328" lon="5.75817">
        <ele>539.44</ele>
        <time>2016-09-18T12:11:49Z</time>
      </trkpt>
      <trkpt lat="50.03325" lon="5.75811">
        <ele>539.44</ele>
        <time>2016-09-18T12:11:54Z</time>
      </trkpt>
      <trkpt lat="50.03317" lon="5.75807">
        <ele>538.96</ele>
        <time>2016-09-18T12:12:07Z</time>
      </trkpt>
      <trkpt lat="50.0331" lon="5.75806">
        <ele>538.96</ele>
        <time>2016-09-18T12:12:22Z</time>
      </trkpt>
      <trkpt lat="50.03304" lon="5.75807">
        <ele>538.96</ele>
        <time>2016-09-18T12:12:27Z</time>
      </trkpt>
      <trkpt lat="50.03295" lon="5.75811">
        <ele>538.96</ele>
        <time>2016-09-18T12:12:36Z</time>
      </trkpt>
      <trkpt lat="50.03277" lon="5.75815">
        <ele>538.48</ele>
        <time>2016-09-18T12:12:49Z</time>
      </trkpt>
      <trkpt lat="50.0327" lon="5.75818">
        <ele>538.48</ele>
        <time>2016-09-18T12:12:54Z</time>
      </trkpt>
      <trkpt lat="50.03263" lon="5.75821">
        <ele>537.99</ele>
        <time>2016-09-18T12:13:00Z</time>
      </trkpt>
      <trkpt lat="50.03258" lon="5.75825">
        <ele>537.51</ele>
        <time>2016-09-18T12:13:04Z</time>
      </trkpt>
      <trkpt lat="50.03252" lon="5.75829">
        <ele>537.03</ele>
        <time>2016-09-18T12:13:08Z</time>
      </trkpt>
      <trkpt lat="50.03236" lon="5.75838">
        <ele>536.07</ele>
        <time>2016-09-18T12:13:22Z</time>
      </trkpt>
      <trkpt lat="50.03224" lon="5.75846">
        <ele>536.07</ele>
        <time>2016-09-18T12:13:33Z</time>
      </trkpt>
      <trkpt lat="50.03213" lon="5.75855">
        <ele>535.11</ele>
        <time>2016-09-18T12:13:45Z</time>
      </trkpt>
      <trkpt lat="50.03202" lon="5.75863">
        <ele>534.15</ele>
        <time>2016-09-18T12:13:58Z</time>
      </trkpt>
      <trkpt lat="50.03194" lon="5.75869">
        <ele>534.63</ele>
        <time>2016-09-18T12:14:14Z</time>
      </trkpt>
      <trkpt lat="50.03189" lon="5.75881">
        <ele>534.15</ele>
        <time>2016-09-18T12:14:40Z</time>
      </trkpt>
      <trkpt lat="50.03182" lon="5.75863">
        <ele>533.67</ele>
        <time>2016-09-18T12:14:55Z</time>
      </trkpt>
      <trkpt lat="50.03177" lon="5.75843">
        <ele>533.67</ele>
        <time>2016-09-18T12:15:09Z</time>
      </trkpt>
      <trkpt lat="50.03173" lon="5.75824">
        <ele>533.19</ele>
        <time>2016-09-18T12:15:20Z</time>
      </trkpt>
      <trkpt lat="50.03166" lon="5.75804">
        <ele>533.19</ele>
        <time>2016-09-18T12:15:32Z</time>
      </trkpt>
      <trkpt lat="50.03161" lon="5.7578">
        <ele>532.71</ele>
        <time>2016-09-18T12:15:47Z</time>
      </trkpt>
      <trkpt lat="50.03157" lon="5.75763">
        <ele>532.23</ele>
        <time>2016-09-18T12:15:59Z</time>
      </trkpt>
      <trkpt lat="50.03148" lon="5.75744">
        <ele>531.75</ele>
        <time>2016-09-18T12:16:13Z</time>
      </trkpt>
      <trkpt lat="50.03146" lon="5.75739">
        <ele>531.27</ele>
        <time>2016-09-18T12:16:17Z</time>
      </trkpt>
      <trkpt lat="50.0314" lon="5.75721">
        <ele>531.27</ele>
        <time>2016-09-18T12:16:27Z</time>
      </trkpt>
      <trkpt lat="50.03133" lon="5.75702">
        <ele>531.27</ele>
        <time>2016-09-18T12:16:39Z</time>
      </trkpt>
      <trkpt lat="50.03129" lon="5.7569">
        <ele>530.3</ele>
        <time>2016-09-18T12:16:46Z</time>
      </trkpt>
      <trkpt lat="50.03122" lon="5.75666">
        <ele>530.79</ele>
        <time>2016-09-18T12:17:00Z</time>
      </trkpt>
      <trkpt lat="50.03115" lon="5.75651">
        <ele>530.3</ele>
        <time>2016-09-18T12:17:10Z</time>
      </trkpt>
      <trkpt lat="50.0311" lon="5.75638">
        <ele>530.3</ele>
        <time>2016-09-18T12:17:20Z</time>
      </trkpt>
      <trkpt lat="50.03107" lon="5.75632">
        <ele>529.82</ele>
        <time>2016-09-18T12:17:25Z</time>
      </trkpt>
      <trkpt lat="50.03096" lon="5.75611">
        <ele>529.34</ele>
        <time>2016-09-18T12:17:38Z</time>
      </trkpt>
      <trkpt lat="50.03095" lon="5.7561">
        <ele>529.34</ele>
        <time>2016-09-18T12:17:39Z</time>
      </trkpt>
      <trkpt lat="50.03087" lon="5.75581">
        <ele>528.86</ele>
        <time>2016-09-18T12:17:54Z</time>
      </trkpt>
      <trkpt lat="50.03087" lon="5.7558">
        <ele>528.86</ele>
        <time>2016-09-18T12:17:55Z</time>
      </trkpt>
      <trkpt lat="50.03074" lon="5.75557">
        <ele>527.9</ele>
        <time>2016-09-18T12:18:10Z</time>
      </trkpt>
      <trkpt lat="50.03072" lon="5.75551">
        <ele>527.9</ele>
        <time>2016-09-18T12:18:14Z</time>
      </trkpt>
      <trkpt lat="50.03065" lon="5.75529">
        <ele>527.42</ele>
        <time>2016-09-18T12:18:28Z</time>
      </trkpt>
      <trkpt lat="50.03064" lon="5.75524">
        <ele>526.94</ele>
        <time>2016-09-18T12:18:31Z</time>
      </trkpt>
      <trkpt lat="50.03055" lon="5.75504">
        <ele>526.46</ele>
        <time>2016-09-18T12:18:45Z</time>
      </trkpt>
      <trkpt lat="50.0305" lon="5.75492">
        <ele>526.46</ele>
        <time>2016-09-18T12:18:59Z</time>
      </trkpt>
      <trkpt lat="50.03045" lon="5.75488">
        <ele>526.46</ele>
        <time>2016-09-18T12:19:04Z</time>
      </trkpt>
      <trkpt lat="50.0304" lon="5.75488">
        <ele>526.46</ele>
        <time>2016-09-18T12:19:08Z</time>
      </trkpt>
      <trkpt lat="50.03022" lon="5.75501">
        <ele>526.46</ele>
        <time>2016-09-18T12:19:24Z</time>
      </trkpt>
      <trkpt lat="50.03006" lon="5.75513">
        <ele>525.5</ele>
        <time>2016-09-18T12:19:38Z</time>
      </trkpt>
      <trkpt lat="50.02993" lon="5.75526">
        <ele>525.02</ele>
        <time>2016-09-18T12:19:49Z</time>
      </trkpt>
      <trkpt lat="50.02975" lon="5.75541">
        <ele>524.54</ele>
        <time>2016-09-18T12:20:05Z</time>
      </trkpt>
      <trkpt lat="50.0296" lon="5.7556">
        <ele>523.58</ele>
        <time>2016-09-18T12:20:20Z</time>
      </trkpt>
      <trkpt lat="50.02941" lon="5.75581">
        <ele>523.09</ele>
        <time>2016-09-18T12:20:38Z</time>
      </trkpt>
      <trkpt lat="50.02925" lon="5.75601">
        <ele>523.09</ele>
        <time>2016-09-18T12:20:54Z</time>
      </trkpt>
      <trkpt lat="50.02916" lon="5.75616">
        <ele>523.09</ele>
        <time>2016-09-18T12:21:04Z</time>
      </trkpt>
      <trkpt lat="50.02904" lon="5.75638">
        <ele>523.09</ele>
        <time>2016-09-18T12:21:19Z</time>
      </trkpt>
      <trkpt lat="50.02892" lon="5.7565">
        <ele>523.09</ele>
        <time>2016-09-18T12:21:31Z</time>
      </trkpt>
      <trkpt lat="50.02885" lon="5.75648">
        <ele>523.09</ele>
        <time>2016-09-18T12:21:44Z</time>
      </trkpt>
      <trkpt lat="50.02882" lon="5.75648">
        <ele>523.09</ele>
        <time>2016-09-18T12:22:03Z</time>
      </trkpt>
      <trkpt lat="50.02881" lon="5.75651">
        <ele>523.09</ele>
        <time>2016-09-18T12:22:17Z</time>
      </trkpt>
      <trkpt lat="50.02883" lon="5.7565">
        <ele>523.09</ele>
        <time>2016-09-18T12:22:31Z</time>
      </trkpt>
      <trkpt lat="50.02885" lon="5.75649">
        <ele>523.09</ele>
        <time>2016-09-18T12:22:48Z</time>
      </trkpt>
      <trkpt lat="50.02883" lon="5.75648">
        <ele>523.09</ele>
        <time>2016-09-18T12:23:12Z</time>
      </trkpt>
      <trkpt lat="50.02882" lon="5.7565">
        <ele>523.09</ele>
        <time>2016-09-18T12:23:18Z</time>
      </trkpt>
      <trkpt lat="50.02868" lon="5.75667">
        <ele>523.09</ele>
        <time>2016-09-18T12:23:33Z</time>
      </trkpt>
      <trkpt lat="50.02853" lon="5.75676">
        <ele>523.09</ele>
        <time>2016-09-18T12:23:46Z</time>
      </trkpt>
      <trkpt lat="50.02833" lon="5.75688">
        <ele>523.09</ele>
        <time>2016-09-18T12:24:04Z</time>
      </trkpt>
      <trkpt lat="50.02832" lon="5.75688">
        <ele>522.61</ele>
        <time>2016-09-18T12:24:16Z</time>
      </trkpt>
      <trkpt lat="50.02833" lon="5.75689">
        <ele>522.61</ele>
        <time>2016-09-18T12:24:32Z</time>
      </trkpt>
      <trkpt lat="50.02833" lon="5.75688">
        <ele>523.09</ele>
        <time>2016-09-18T12:24:48Z</time>
      </trkpt>
      <trkpt lat="50.02833" lon="5.75688">
        <ele>523.58</ele>
        <time>2016-09-18T12:24:59Z</time>
      </trkpt>
      <trkpt lat="50.02833" lon="5.75688">
        <ele>523.58</ele>
        <time>2016-09-18T12:25:19Z</time>
      </trkpt>
      <trkpt lat="50.0283" lon="5.7569">
        <ele>523.58</ele>
        <time>2016-09-18T12:25:33Z</time>
      </trkpt>
      <trkpt lat="50.02828" lon="5.75694">
        <ele>523.58</ele>
        <time>2016-09-18T12:25:47Z</time>
      </trkpt>
      <trkpt lat="50.02828" lon="5.75695">
        <ele>523.58</ele>
        <time>2016-09-18T12:25:48Z</time>
      </trkpt>
      <trkpt lat="50.02827" lon="5.75697">
        <ele>523.58</ele>
        <time>2016-09-18T12:25:50Z</time>
      </trkpt>
      <trkpt lat="50.02823" lon="5.757">
        <ele>523.58</ele>
        <time>2016-09-18T12:25:53Z</time>
      </trkpt>
      <trkpt lat="50.02813" lon="5.75708">
        <ele>522.13</ele>
        <time>2016-09-18T12:26:04Z</time>
      </trkpt>
      <trkpt lat="50.02808" lon="5.75711">
        <ele>522.13</ele>
        <time>2016-09-18T12:26:08Z</time>
      </trkpt>
      <trkpt lat="50.02802" lon="5.75712">
        <ele>522.13</ele>
        <time>2016-09-18T12:26:14Z</time>
      </trkpt>
      <trkpt lat="50.0279" lon="5.75723">
        <ele>521.65</ele>
        <time>2016-09-18T12:26:27Z</time>
      </trkpt>
      <trkpt lat="50.02788" lon="5.75732">
        <ele>521.65</ele>
        <time>2016-09-18T12:26:41Z</time>
      </trkpt>
      <trkpt lat="50.02788" lon="5.75732">
        <ele>521.17</ele>
        <time>2016-09-18T12:26:46Z</time>
      </trkpt>
      <trkpt lat="50.02792" lon="5.75741">
        <ele>521.17</ele>
        <time>2016-09-18T12:26:54Z</time>
      </trkpt>
      <trkpt lat="50.02795" lon="5.75747">
        <ele>521.17</ele>
        <time>2016-09-18T12:26:58Z</time>
      </trkpt>
      <trkpt lat="50.0281" lon="5.75777">
        <ele>521.17</ele>
        <time>2016-09-18T12:27:18Z</time>
      </trkpt>
      <trkpt lat="50.02822" lon="5.75798">
        <ele>521.17</ele>
        <time>2016-09-18T12:27:33Z</time>
      </trkpt>
      <trkpt lat="50.02838" lon="5.75827">
        <ele>520.69</ele>
        <time>2016-09-18T12:27:54Z</time>
      </trkpt>
      <trkpt lat="50.02844" lon="5.75835">
        <ele>520.21</ele>
        <time>2016-09-18T12:28:09Z</time>
      </trkpt>
      <trkpt lat="50.02844" lon="5.75836">
        <ele>519.73</ele>
        <time>2016-09-18T12:28:23Z</time>
      </trkpt>
      <trkpt lat="50.02844" lon="5.75837">
        <ele>515.4</ele>
        <time>2016-09-18T12:28:34Z</time>
      </trkpt>
      <trkpt lat="50.02844" lon="5.75838">
        <ele>523.58</ele>
        <time>2016-09-18T12:28:35Z</time>
      </trkpt>
      <trkpt lat="50.02844" lon="5.75838">
        <ele>519.73</ele>
        <time>2016-09-18T12:28:36Z</time>
      </trkpt>
      <trkpt lat="50.02844" lon="5.75838">
        <ele>519.73</ele>
        <time>2016-09-18T12:28:38Z</time>
      </trkpt>
      <trkpt lat="50.02844" lon="5.75839">
        <ele>519.73</ele>
        <time>2016-09-18T12:28:40Z</time>
      </trkpt>
      <trkpt lat="50.02847" lon="5.75844">
        <ele>519.73</ele>
        <time>2016-09-18T12:28:44Z</time>
      </trkpt>
      <trkpt lat="50.02851" lon="5.75851">
        <ele>519.73</ele>
        <time>2016-09-18T12:28:48Z</time>
      </trkpt>
      <trkpt lat="50.02857" lon="5.75859">
        <ele>519.73</ele>
        <time>2016-09-18T12:28:54Z</time>
      </trkpt>
      <trkpt lat="50.02874" lon="5.75888">
        <ele>519.73</ele>
        <time>2016-09-18T12:29:13Z</time>
      </trkpt>
      <trkpt lat="50.02891" lon="5.75917">
        <ele>519.73</ele>
        <time>2016-09-18T12:29:32Z</time>
      </trkpt>
      <trkpt lat="50.02907" lon="5.75958">
        <ele>519.73</ele>
        <time>2016-09-18T12:29:54Z</time>
      </trkpt>
      <trkpt lat="50.0292" lon="5.76009">
        <ele>519.73</ele>
        <time>2016-09-18T12:30:19Z</time>
      </trkpt>
      <trkpt lat="50.02924" lon="5.76051">
        <ele>520.69</ele>
        <time>2016-09-18T12:30:38Z</time>
      </trkpt>
      <trkpt lat="50.02931" lon="5.76095">
        <ele>521.65</ele>
        <time>2016-09-18T12:30:59Z</time>
      </trkpt>
      <trkpt lat="50.02941" lon="5.76128">
        <ele>523.58</ele>
        <time>2016-09-18T12:31:16Z</time>
      </trkpt>
      <trkpt lat="50.02952" lon="5.76165">
        <ele>524.54</ele>
        <time>2016-09-18T12:31:36Z</time>
      </trkpt>
      <trkpt lat="50.02966" lon="5.76197">
        <ele>525.98</ele>
        <time>2016-09-18T12:31:54Z</time>
      </trkpt>
      <trkpt lat="50.02981" lon="5.76234">
        <ele>525.98</ele>
        <time>2016-09-18T12:32:14Z</time>
      </trkpt>
      <trkpt lat="50.02994" lon="5.76265">
        <ele>525.98</ele>
        <time>2016-09-18T12:32:33Z</time>
      </trkpt>
      <trkpt lat="50.0301" lon="5.76301">
        <ele>526.94</ele>
        <time>2016-09-18T12:32:55Z</time>
      </trkpt>
      <trkpt lat="50.03024" lon="5.76333">
        <ele>527.42</ele>
        <time>2016-09-18T12:33:15Z</time>
      </trkpt>
      <trkpt lat="50.03036" lon="5.76361">
        <ele>527.42</ele>
        <time>2016-09-18T12:33:33Z</time>
      </trkpt>
      <trkpt lat="50.03044" lon="5.76375">
        <ele>527.42</ele>
        <time>2016-09-18T12:33:45Z</time>
      </trkpt>
      <trkpt lat="50.03045" lon="5.76379">
        <ele>527.42</ele>
        <time>2016-09-18T12:33:59Z</time>
      </trkpt>
      <trkpt lat="50.03046" lon="5.76387">
        <ele>527.9</ele>
        <time>2016-09-18T12:34:06Z</time>
      </trkpt>
      <trkpt lat="50.03054" lon="5.76409">
        <ele>527.9</ele>
        <time>2016-09-18T12:34:21Z</time>
      </trkpt>
      <trkpt lat="50.03063" lon="5.76427">
        <ele>527.9</ele>
        <time>2016-09-18T12:34:34Z</time>
      </trkpt>
      <trkpt lat="50.03065" lon="5.76432">
        <ele>527.9</ele>
        <time>2016-09-18T12:34:37Z</time>
      </trkpt>
      <trkpt lat="50.03069" lon="5.76439">
        <ele>528.38</ele>
        <time>2016-09-18T12:34:42Z</time>
      </trkpt>
      <trkpt lat="50.03083" lon="5.76466">
        <ele>528.86</ele>
        <time>2016-09-18T12:35:00Z</time>
      </trkpt>
      <trkpt lat="50.03095" lon="5.76487">
        <ele>528.86</ele>
        <time>2016-09-18T12:35:13Z</time>
      </trkpt>
      <trkpt lat="50.03103" lon="5.76505">
        <ele>528.86</ele>
        <time>2016-09-18T12:35:24Z</time>
      </trkpt>
      <trkpt lat="50.03112" lon="5.76531">
        <ele>529.34</ele>
        <time>2016-09-18T12:35:40Z</time>
      </trkpt>
      <trkpt lat="50.03126" lon="5.76559">
        <ele>529.82</ele>
        <time>2016-09-18T12:35:57Z</time>
      </trkpt>
      <trkpt lat="50.03132" lon="5.76571">
        <ele>530.3</ele>
        <time>2016-09-18T12:36:05Z</time>
      </trkpt>
      <trkpt lat="50.03132" lon="5.76594">
        <ele>530.79</ele>
        <time>2016-09-18T12:36:16Z</time>
      </trkpt>
      <trkpt lat="50.03143" lon="5.76617">
        <ele>531.27</ele>
        <time>2016-09-18T12:36:33Z</time>
      </trkpt>
      <trkpt lat="50.03158" lon="5.76645">
        <ele>531.27</ele>
        <time>2016-09-18T12:36:50Z</time>
      </trkpt>
      <trkpt lat="50.0317" lon="5.76669">
        <ele>532.23</ele>
        <time>2016-09-18T12:37:04Z</time>
      </trkpt>
      <trkpt lat="50.03184" lon="5.76694">
        <ele>532.71</ele>
        <time>2016-09-18T12:37:20Z</time>
      </trkpt>
      <trkpt lat="50.03185" lon="5.76703">
        <ele>533.19</ele>
        <time>2016-09-18T12:37:26Z</time>
      </trkpt>
      <trkpt lat="50.03195" lon="5.76729">
        <ele>534.15</ele>
        <time>2016-09-18T12:37:42Z</time>
      </trkpt>
      <trkpt lat="50.03206" lon="5.76753">
        <ele>534.63</ele>
        <time>2016-09-18T12:37:57Z</time>
      </trkpt>
      <trkpt lat="50.03208" lon="5.76758">
        <ele>534.63</ele>
        <time>2016-09-18T12:38:00Z</time>
      </trkpt>
      <trkpt lat="50.03214" lon="5.76779">
        <ele>535.59</ele>
        <time>2016-09-18T12:38:14Z</time>
      </trkpt>
      <trkpt lat="50.03232" lon="5.76805">
        <ele>536.55</ele>
        <time>2016-09-18T12:38:31Z</time>
      </trkpt>
      <trkpt lat="50.0324" lon="5.76823">
        <ele>537.03</ele>
        <time>2016-09-18T12:38:44Z</time>
      </trkpt>
      <trkpt lat="50.03248" lon="5.76852">
        <ele>538.48</ele>
        <time>2016-09-18T12:39:01Z</time>
      </trkpt>
      <trkpt lat="50.03256" lon="5.76876">
        <ele>538.96</ele>
        <time>2016-09-18T12:39:16Z</time>
      </trkpt>
      <trkpt lat="50.03266" lon="5.76903">
        <ele>539.92</ele>
        <time>2016-09-18T12:39:32Z</time>
      </trkpt>
      <trkpt lat="50.03268" lon="5.76905">
        <ele>539.92</ele>
        <time>2016-09-18T12:39:34Z</time>
      </trkpt>
      <trkpt lat="50.0327" lon="5.76911">
        <ele>539.92</ele>
        <time>2016-09-18T12:39:38Z</time>
      </trkpt>
      <trkpt lat="50.03276" lon="5.76926">
        <ele>540.4</ele>
        <time>2016-09-18T12:39:47Z</time>
      </trkpt>
      <trkpt lat="50.03282" lon="5.7694">
        <ele>540.88</ele>
        <time>2016-09-18T12:39:56Z</time>
      </trkpt>
      <trkpt lat="50.03284" lon="5.76946">
        <ele>541.36</ele>
        <time>2016-09-18T12:40:00Z</time>
      </trkpt>
      <trkpt lat="50.03291" lon="5.76957">
        <ele>541.36</ele>
        <time>2016-09-18T12:40:08Z</time>
      </trkpt>
      <trkpt lat="50.03303" lon="5.76984">
        <ele>541.36</ele>
        <time>2016-09-18T12:40:27Z</time>
      </trkpt>
      <trkpt lat="50.03318" lon="5.77004">
        <ele>541.36</ele>
        <time>2016-09-18T12:40:45Z</time>
      </trkpt>
      <trkpt lat="50.03339" lon="5.7702">
        <ele>538.96</ele>
        <time>2016-09-18T12:41:04Z</time>
      </trkpt>
      <trkpt lat="50.03363" lon="5.77037">
        <ele>537.03</ele>
        <time>2016-09-18T12:41:24Z</time>
      </trkpt>
      <trkpt lat="50.03384" lon="5.77056">
        <ele>535.11</ele>
        <time>2016-09-18T12:41:44Z</time>
      </trkpt>
      <trkpt lat="50.03407" lon="5.7708">
        <ele>533.67</ele>
        <time>2016-09-18T12:42:04Z</time>
      </trkpt>
      <trkpt lat="50.0342" lon="5.77094">
        <ele>533.19</ele>
        <time>2016-09-18T12:42:16Z</time>
      </trkpt>
      <trkpt lat="50.03424" lon="5.77099">
        <ele>533.19</ele>
        <time>2016-09-18T12:42:20Z</time>
      </trkpt>
      <trkpt lat="50.03442" lon="5.77121">
        <ele>532.23</ele>
        <time>2016-09-18T12:42:38Z</time>
      </trkpt>
      <trkpt lat="50.03465" lon="5.77144">
        <ele>531.75</ele>
        <time>2016-09-18T12:42:59Z</time>
      </trkpt>
      <trkpt lat="50.03486" lon="5.77165">
        <ele>531.75</ele>
        <time>2016-09-18T12:43:18Z</time>
      </trkpt>
      <trkpt lat="50.03506" lon="5.77183">
        <ele>531.75</ele>
        <time>2016-09-18T12:43:35Z</time>
      </trkpt>
      <trkpt lat="50.03527" lon="5.77202">
        <ele>531.27</ele>
        <time>2016-09-18T12:43:55Z</time>
      </trkpt>
      <trkpt lat="50.03537" lon="5.7721">
        <ele>530.79</ele>
        <time>2016-09-18T12:44:09Z</time>
      </trkpt>
      <trkpt lat="50.03549" lon="5.7722">
        <ele>530.79</ele>
        <time>2016-09-18T12:44:20Z</time>
      </trkpt>
      <trkpt lat="50.03557" lon="5.77228">
        <ele>530.79</ele>
        <time>2016-09-18T12:44:26Z</time>
      </trkpt>
      <trkpt lat="50.03584" lon="5.77248">
        <ele>530.3</ele>
        <time>2016-09-18T12:44:46Z</time>
      </trkpt>
      <trkpt lat="50.03611" lon="5.77267">
        <ele>529.82</ele>
        <time>2016-09-18T12:45:07Z</time>
      </trkpt>
      <trkpt lat="50.03634" lon="5.77289">
        <ele>529.82</ele>
        <time>2016-09-18T12:45:28Z</time>
      </trkpt>
      <trkpt lat="50.03654" lon="5.77307">
        <ele>529.82</ele>
        <time>2016-09-18T12:45:47Z</time>
      </trkpt>
      <trkpt lat="50.03676" lon="5.77329">
        <ele>529.82</ele>
        <time>2016-09-18T12:46:06Z</time>
      </trkpt>
      <trkpt lat="50.03698" lon="5.77357">
        <ele>529.82</ele>
        <time>2016-09-18T12:46:27Z</time>
      </trkpt>
      <trkpt lat="50.0371" lon="5.77376">
        <ele>531.27</ele>
        <time>2016-09-18T12:46:41Z</time>
      </trkpt>
      <trkpt lat="50.03711" lon="5.77378">
        <ele>531.75</ele>
        <time>2016-09-18T12:46:45Z</time>
      </trkpt>
      <trkpt lat="50.03731" lon="5.77405">
        <ele>531.75</ele>
        <time>2016-09-18T12:47:06Z</time>
      </trkpt>
      <trkpt lat="50.03735" lon="5.77407">
        <ele>531.75</ele>
        <time>2016-09-18T12:47:21Z</time>
      </trkpt>
      <trkpt lat="50.03733" lon="5.77407">
        <ele>531.75</ele>
        <time>2016-09-18T12:47:40Z</time>
      </trkpt>
      <trkpt lat="50.03736" lon="5.77413">
        <ele>531.75</ele>
        <time>2016-09-18T12:47:46Z</time>
      </trkpt>
      <trkpt lat="50.03737" lon="5.77419">
        <ele>531.75</ele>
        <time>2016-09-18T12:47:50Z</time>
      </trkpt>
      <trkpt lat="50.0374" lon="5.77422">
        <ele>531.75</ele>
        <time>2016-09-18T12:47:53Z</time>
      </trkpt>
      <trkpt lat="50.03742" lon="5.77424">
        <ele>531.75</ele>
        <time>2016-09-18T12:48:08Z</time>
      </trkpt>
      <trkpt lat="50.03741" lon="5.77425">
        <ele>531.75</ele>
        <time>2016-09-18T12:48:34Z</time>
      </trkpt>
      <trkpt lat="50.0374" lon="5.77429">
        <ele>532.23</ele>
        <time>2016-09-18T12:49:05Z</time>
      </trkpt>
      <trkpt lat="50.03743" lon="5.77428">
        <ele>532.23</ele>
        <time>2016-09-18T12:49:26Z</time>
      </trkpt>
      <trkpt lat="50.03742" lon="5.7743">
        <ele>532.23</ele>
        <time>2016-09-18T12:49:44Z</time>
      </trkpt>
      <trkpt lat="50.03743" lon="5.77428">
        <ele>532.23</ele>
        <time>2016-09-18T12:50:10Z</time>
      </trkpt>
      <trkpt lat="50.03744" lon="5.7743">
        <ele>532.23</ele>
        <time>2016-09-18T12:50:35Z</time>
      </trkpt>
      <trkpt lat="50.03746" lon="5.77436">
        <ele>532.23</ele>
        <time>2016-09-18T12:51:01Z</time>
      </trkpt>
      <trkpt lat="50.03746" lon="5.77434">
        <ele>532.23</ele>
        <time>2016-09-18T12:51:18Z</time>
      </trkpt>
      <trkpt lat="50.03748" lon="5.77438">
        <ele>532.23</ele>
        <time>2016-09-18T12:51:23Z</time>
      </trkpt>
      <trkpt lat="50.0375" lon="5.77442">
        <ele>532.23</ele>
        <time>2016-09-18T12:51:26Z</time>
      </trkpt>
      <trkpt lat="50.03761" lon="5.77461">
        <ele>532.23</ele>
        <time>2016-09-18T12:51:41Z</time>
      </trkpt>
      <trkpt lat="50.03766" lon="5.77472">
        <ele>532.71</ele>
        <time>2016-09-18T12:51:49Z</time>
      </trkpt>
      <trkpt lat="50.03772" lon="5.7748">
        <ele>532.71</ele>
        <time>2016-09-18T12:51:56Z</time>
      </trkpt>
      <trkpt lat="50.03776" lon="5.77489">
        <ele>533.19</ele>
        <time>2016-09-18T12:52:01Z</time>
      </trkpt>
      <trkpt lat="50.03791" lon="5.77521">
        <ele>533.19</ele>
        <time>2016-09-18T12:52:21Z</time>
      </trkpt>
      <trkpt lat="50.03804" lon="5.77547">
        <ele>533.67</ele>
        <time>2016-09-18T12:52:38Z</time>
      </trkpt>
      <trkpt lat="50.03812" lon="5.77558">
        <ele>533.67</ele>
        <time>2016-09-18T12:52:49Z</time>
      </trkpt>
      <trkpt lat="50.03814" lon="5.77563">
        <ele>533.67</ele>
        <time>2016-09-18T12:52:53Z</time>
      </trkpt>
      <trkpt lat="50.03832" lon="5.77592">
        <ele>534.15</ele>
        <time>2016-09-18T12:53:10Z</time>
      </trkpt>
      <trkpt lat="50.03842" lon="5.77606">
        <ele>534.63</ele>
        <time>2016-09-18T12:53:21Z</time>
      </trkpt>
      <trkpt lat="50.03851" lon="5.77621">
        <ele>534.63</ele>
        <time>2016-09-18T12:53:35Z</time>
      </trkpt>
      <trkpt lat="50.03861" lon="5.77639">
        <ele>534.63</ele>
        <time>2016-09-18T12:53:50Z</time>
      </trkpt>
      <trkpt lat="50.03876" lon="5.7766">
        <ele>534.63</ele>
        <time>2016-09-18T12:54:03Z</time>
      </trkpt>
      <trkpt lat="50.03894" lon="5.77688">
        <ele>535.59</ele>
        <time>2016-09-18T12:54:20Z</time>
      </trkpt>
      <trkpt lat="50.0391" lon="5.77715">
        <ele>536.07</ele>
        <time>2016-09-18T12:54:38Z</time>
      </trkpt>
      <trkpt lat="50.03925" lon="5.77741">
        <ele>537.03</ele>
        <time>2016-09-18T12:54:57Z</time>
      </trkpt>
      <trkpt lat="50.03938" lon="5.77763">
        <ele>537.03</ele>
        <time>2016-09-18T12:55:12Z</time>
      </trkpt>
      <trkpt lat="50.03953" lon="5.77792">
        <ele>537.03</ele>
        <time>2016-09-18T12:55:32Z</time>
      </trkpt>
      <trkpt lat="50.03969" lon="5.77821">
        <ele>537.03</ele>
        <time>2016-09-18T12:55:51Z</time>
      </trkpt>
      <trkpt lat="50.03985" lon="5.77845">
        <ele>537.03</ele>
        <time>2016-09-18T12:56:08Z</time>
      </trkpt>
      <trkpt lat="50.03992" lon="5.77853">
        <ele>537.03</ele>
        <time>2016-09-18T12:56:15Z</time>
      </trkpt>
      <trkpt lat="50.04009" lon="5.7787">
        <ele>537.03</ele>
        <time>2016-09-18T12:56:32Z</time>
      </trkpt>
      <trkpt lat="50.04011" lon="5.77871">
        <ele>537.03</ele>
        <time>2016-09-18T12:56:49Z</time>
      </trkpt>
      <trkpt lat="50.04019" lon="5.77878">
        <ele>537.51</ele>
        <time>2016-09-18T12:57:05Z</time>
      </trkpt>
      <trkpt lat="50.04031" lon="5.77892">
        <ele>537.51</ele>
        <time>2016-09-18T12:57:20Z</time>
      </trkpt>
      <trkpt lat="50.04041" lon="5.77903">
        <ele>537.51</ele>
        <time>2016-09-18T12:57:30Z</time>
      </trkpt>
      <trkpt lat="50.04048" lon="5.77909">
        <ele>537.51</ele>
        <time>2016-09-18T12:57:41Z</time>
      </trkpt>
      <trkpt lat="50.04054" lon="5.77919">
        <ele>537.51</ele>
        <time>2016-09-18T12:57:52Z</time>
      </trkpt>
      <trkpt lat="50.04064" lon="5.77931">
        <ele>537.51</ele>
        <time>2016-09-18T12:58:07Z</time>
      </trkpt>
      <trkpt lat="50.04067" lon="5.77938">
        <ele>537.51</ele>
        <time>2016-09-18T12:58:14Z</time>
      </trkpt>
      <trkpt lat="50.04079" lon="5.77954">
        <ele>537.99</ele>
        <time>2016-09-18T12:58:29Z</time>
      </trkpt>
      <trkpt lat="50.04091" lon="5.77969">
        <ele>538.48</ele>
        <time>2016-09-18T12:58:45Z</time>
      </trkpt>
      <trkpt lat="50.04104" lon="5.77981">
        <ele>538.96</ele>
        <time>2016-09-18T12:58:58Z</time>
      </trkpt>
      <trkpt lat="50.04119" lon="5.77998">
        <ele>538.96</ele>
        <time>2016-09-18T12:59:11Z</time>
      </trkpt>
      <trkpt lat="50.04132" lon="5.78013">
        <ele>538.96</ele>
        <time>2016-09-18T12:59:23Z</time>
      </trkpt>
      <trkpt lat="50.04135" lon="5.78018">
        <ele>538.96</ele>
        <time>2016-09-18T12:59:25Z</time>
      </trkpt>
      <trkpt lat="50.04151" lon="5.78044">
        <ele>538.96</ele>
        <time>2016-09-18T12:59:40Z</time>
      </trkpt>
      <trkpt lat="50.04163" lon="5.78063">
        <ele>539.44</ele>
        <time>2016-09-18T12:59:53Z</time>
      </trkpt>
      <trkpt lat="50.04172" lon="5.78076">
        <ele>539.44</ele>
        <time>2016-09-18T13:00:05Z</time>
      </trkpt>
      <trkpt lat="50.04177" lon="5.78086">
        <ele>539.44</ele>
        <time>2016-09-18T13:00:12Z</time>
      </trkpt>
      <trkpt lat="50.04199" lon="5.78119">
        <ele>539.44</ele>
        <time>2016-09-18T13:00:25Z</time>
      </trkpt>
      <trkpt lat="50.04216" lon="5.78154">
        <ele>539.44</ele>
        <time>2016-09-18T13:00:45Z</time>
      </trkpt>
      <trkpt lat="50.0423" lon="5.78181">
        <ele>539.44</ele>
        <time>2016-09-18T13:01:03Z</time>
      </trkpt>
      <trkpt lat="50.04246" lon="5.78205">
        <ele>539.44</ele>
        <time>2016-09-18T13:01:21Z</time>
      </trkpt>
      <trkpt lat="50.04266" lon="5.78238">
        <ele>540.4</ele>
        <time>2016-09-18T13:01:43Z</time>
      </trkpt>
      <trkpt lat="50.04284" lon="5.78272">
        <ele>540.4</ele>
        <time>2016-09-18T13:02:05Z</time>
      </trkpt>
      <trkpt lat="50.04302" lon="5.78315">
        <ele>541.36</ele>
        <time>2016-09-18T13:02:31Z</time>
      </trkpt>
      <trkpt lat="50.04317" lon="5.78347">
        <ele>542.32</ele>
        <time>2016-09-18T13:02:51Z</time>
      </trkpt>
      <trkpt lat="50.04334" lon="5.78385">
        <ele>543.28</ele>
        <time>2016-09-18T13:03:14Z</time>
      </trkpt>
      <trkpt lat="50.0435" lon="5.78426">
        <ele>544.72</ele>
        <time>2016-09-18T13:03:38Z</time>
      </trkpt>
      <trkpt lat="50.04364" lon="5.78464">
        <ele>545.69</ele>
        <time>2016-09-18T13:04:01Z</time>
      </trkpt>
      <trkpt lat="50.04375" lon="5.78498">
        <ele>546.65</ele>
        <time>2016-09-18T13:04:21Z</time>
      </trkpt>
      <trkpt lat="50.04389" lon="5.7854">
        <ele>547.13</ele>
        <time>2016-09-18T13:04:45Z</time>
      </trkpt>
      <trkpt lat="50.04408" lon="5.7858">
        <ele>548.09</ele>
        <time>2016-09-18T13:05:10Z</time>
      </trkpt>
      <trkpt lat="50.04425" lon="5.78613">
        <ele>547.13</ele>
        <time>2016-09-18T13:05:32Z</time>
      </trkpt>
      <trkpt lat="50.04446" lon="5.7865">
        <ele>547.13</ele>
        <time>2016-09-18T13:05:57Z</time>
      </trkpt>
      <trkpt lat="50.04463" lon="5.78677">
        <ele>546.65</ele>
        <time>2016-09-18T13:06:17Z</time>
      </trkpt>
      <trkpt lat="50.0448" lon="5.78704">
        <ele>546.17</ele>
        <time>2016-09-18T13:06:37Z</time>
      </trkpt>
      <trkpt lat="50.04493" lon="5.78725">
        <ele>546.17</ele>
        <time>2016-09-18T13:06:53Z</time>
      </trkpt>
      <trkpt lat="50.04517" lon="5.7876">
        <ele>545.69</ele>
        <time>2016-09-18T13:07:18Z</time>
      </trkpt>
      <trkpt lat="50.0454" lon="5.78795">
        <ele>545.69</ele>
        <time>2016-09-18T13:07:43Z</time>
      </trkpt>
      <trkpt lat="50.04562" lon="5.78834">
        <ele>545.69</ele>
        <time>2016-09-18T13:08:09Z</time>
      </trkpt>
      <trkpt lat="50.04583" lon="5.78868">
        <ele>545.69</ele>
        <time>2016-09-18T13:08:33Z</time>
      </trkpt>
      <trkpt lat="50.04589" lon="5.78877">
        <ele>545.2</ele>
        <time>2016-09-18T13:08:47Z</time>
      </trkpt>
      <trkpt lat="50.04591" lon="5.78873">
        <ele>545.2</ele>
        <time>2016-09-18T13:09:03Z</time>
      </trkpt>
      <trkpt lat="50.04591" lon="5.78873">
        <ele>544.72</ele>
        <time>2016-09-18T13:09:27Z</time>
      </trkpt>
      <trkpt lat="50.04591" lon="5.78875">
        <ele>544.72</ele>
        <time>2016-09-18T13:09:57Z</time>
      </trkpt>
      <trkpt lat="50.04592" lon="5.78874">
        <ele>544.24</ele>
        <time>2016-09-18T13:10:07Z</time>
      </trkpt>
      <trkpt lat="50.04596" lon="5.78868">
        <ele>544.24</ele>
        <time>2016-09-18T13:10:22Z</time>
      </trkpt>
      <trkpt lat="50.04597" lon="5.78847">
        <ele>543.76</ele>
        <time>2016-09-18T13:10:36Z</time>
      </trkpt>
      <trkpt lat="50.04597" lon="5.78809">
        <ele>542.8</ele>
        <time>2016-09-18T13:10:56Z</time>
      </trkpt>
      <trkpt lat="50.04598" lon="5.78798">
        <ele>542.8</ele>
        <time>2016-09-18T13:11:02Z</time>
      </trkpt>
      <trkpt lat="50.04598" lon="5.78764">
        <ele>541.36</ele>
        <time>2016-09-18T13:11:20Z</time>
      </trkpt>
      <trkpt lat="50.04598" lon="5.78729">
        <ele>539.92</ele>
        <time>2016-09-18T13:11:37Z</time>
      </trkpt>
      <trkpt lat="50.04598" lon="5.78716">
        <ele>539.44</ele>
        <time>2016-09-18T13:11:44Z</time>
      </trkpt>
      <trkpt lat="50.04598" lon="5.78673">
        <ele>537.51</ele>
        <time>2016-09-18T13:12:05Z</time>
      </trkpt>
      <trkpt lat="50.04595" lon="5.78644">
        <ele>536.55</ele>
        <time>2016-09-18T13:12:20Z</time>
      </trkpt>
      <trkpt lat="50.04594" lon="5.78634">
        <ele>536.07</ele>
        <time>2016-09-18T13:12:25Z</time>
      </trkpt>
      <trkpt lat="50.04592" lon="5.786">
        <ele>535.11</ele>
        <time>2016-09-18T13:12:43Z</time>
      </trkpt>
      <trkpt lat="50.04587" lon="5.78566">
        <ele>534.15</ele>
        <time>2016-09-18T13:13:00Z</time>
      </trkpt>
      <trkpt lat="50.04584" lon="5.78534">
        <ele>533.19</ele>
        <time>2016-09-18T13:13:16Z</time>
      </trkpt>
      <trkpt lat="50.04594" lon="5.78501">
        <ele>532.71</ele>
        <time>2016-09-18T13:13:35Z</time>
      </trkpt>
      <trkpt lat="50.04599" lon="5.78486">
        <ele>532.23</ele>
        <time>2016-09-18T13:13:49Z</time>
      </trkpt>
      <trkpt lat="50.04599" lon="5.78453">
        <ele>531.27</ele>
        <time>2016-09-18T13:14:05Z</time>
      </trkpt>
      <trkpt lat="50.04601" lon="5.7843">
        <ele>530.79</ele>
        <time>2016-09-18T13:14:21Z</time>
      </trkpt>
      <trkpt lat="50.04601" lon="5.78385">
        <ele>530.3</ele>
        <time>2016-09-18T13:14:43Z</time>
      </trkpt>
      <trkpt lat="50.04602" lon="5.78346">
        <ele>529.34</ele>
        <time>2016-09-18T13:15:02Z</time>
      </trkpt>
      <trkpt lat="50.04603" lon="5.783">
        <ele>528.86</ele>
        <time>2016-09-18T13:15:25Z</time>
      </trkpt>
      <trkpt lat="50.04606" lon="5.78253">
        <ele>527.9</ele>
        <time>2016-09-18T13:15:48Z</time>
      </trkpt>
      <trkpt lat="50.04606" lon="5.78253">
        <ele>527.42</ele>
        <time>2016-09-18T13:15:53Z</time>
      </trkpt>
      <trkpt lat="50.04609" lon="5.78214">
        <ele>526.46</ele>
        <time>2016-09-18T13:16:12Z</time>
      </trkpt>
      <trkpt lat="50.0461" lon="5.78171">
        <ele>525.5</ele>
        <time>2016-09-18T13:16:33Z</time>
      </trkpt>
      <trkpt lat="50.04605" lon="5.78131">
        <ele>524.54</ele>
        <time>2016-09-18T13:16:53Z</time>
      </trkpt>
      <trkpt lat="50.04599" lon="5.78096">
        <ele>524.06</ele>
        <time>2016-09-18T13:17:12Z</time>
      </trkpt>
      <trkpt lat="50.04597" lon="5.7806">
        <ele>522.61</ele>
        <time>2016-09-18T13:17:31Z</time>
      </trkpt>
      <trkpt lat="50.04599" lon="5.78023">
        <ele>521.65</ele>
        <time>2016-09-18T13:17:50Z</time>
      </trkpt>
      <trkpt lat="50.04604" lon="5.77991">
        <ele>521.65</ele>
        <time>2016-09-18T13:18:06Z</time>
      </trkpt>
      <trkpt lat="50.04605" lon="5.7798">
        <ele>521.65</ele>
        <time>2016-09-18T13:18:11Z</time>
      </trkpt>
      <trkpt lat="50.04605" lon="5.7795">
        <ele>521.65</ele>
        <time>2016-09-18T13:18:27Z</time>
      </trkpt>
      <trkpt lat="50.04603" lon="5.77917">
        <ele>521.65</ele>
        <time>2016-09-18T13:18:44Z</time>
      </trkpt>
      <trkpt lat="50.046" lon="5.77885">
        <ele>522.13</ele>
        <time>2016-09-18T13:19:01Z</time>
      </trkpt>
      <trkpt lat="50.04597" lon="5.77861">
        <ele>522.13</ele>
        <time>2016-09-18T13:19:14Z</time>
      </trkpt>
      <trkpt lat="50.04594" lon="5.77842">
        <ele>524.06</ele>
        <time>2016-09-18T13:19:26Z</time>
      </trkpt>
      <trkpt lat="50.04587" lon="5.77809">
        <ele>524.54</ele>
        <time>2016-09-18T13:19:42Z</time>
      </trkpt>
      <trkpt lat="50.04586" lon="5.77805">
        <ele>524.54</ele>
        <time>2016-09-18T13:19:44Z</time>
      </trkpt>
      <trkpt lat="50.04582" lon="5.77776">
        <ele>525.02</ele>
        <time>2016-09-18T13:19:59Z</time>
      </trkpt>
      <trkpt lat="50.04577" lon="5.77752">
        <ele>525.98</ele>
        <time>2016-09-18T13:20:11Z</time>
      </trkpt>
      <trkpt lat="50.04571" lon="5.77722">
        <ele>526.46</ele>
        <time>2016-09-18T13:20:30Z</time>
      </trkpt>
      <trkpt lat="50.0457" lon="5.77719">
        <ele>526.46</ele>
        <time>2016-09-18T13:20:35Z</time>
      </trkpt>
      <trkpt lat="50.04566" lon="5.77678">
        <ele>526.94</ele>
        <time>2016-09-18T13:20:56Z</time>
      </trkpt>
      <trkpt lat="50.04566" lon="5.77642">
        <ele>526.94</ele>
        <time>2016-09-18T13:21:13Z</time>
      </trkpt>
      <trkpt lat="50.04568" lon="5.77612">
        <ele>527.42</ele>
        <time>2016-09-18T13:21:28Z</time>
      </trkpt>
      <trkpt lat="50.04568" lon="5.77604">
        <ele>525.98</ele>
        <time>2016-09-18T13:21:32Z</time>
      </trkpt>
      <trkpt lat="50.04569" lon="5.7757">
        <ele>525.5</ele>
        <time>2016-09-18T13:21:49Z</time>
      </trkpt>
      <trkpt lat="50.0457" lon="5.7756">
        <ele>525.02</ele>
        <time>2016-09-18T13:22:04Z</time>
      </trkpt>
      <trkpt lat="50.0457" lon="5.7756">
        <ele>525.02</ele>
        <time>2016-09-18T13:22:05Z</time>
      </trkpt>
      <trkpt lat="50.04572" lon="5.77543">
        <ele>524.54</ele>
        <time>2016-09-18T13:22:15Z</time>
      </trkpt>
      <trkpt lat="50.04573" lon="5.77504">
        <ele>523.58</ele>
        <time>2016-09-18T13:22:33Z</time>
      </trkpt>
      <trkpt lat="50.04577" lon="5.77467">
        <ele>522.61</ele>
        <time>2016-09-18T13:22:51Z</time>
      </trkpt>
      <trkpt lat="50.0458" lon="5.7745">
        <ele>522.13</ele>
        <time>2016-09-18T13:23:00Z</time>
      </trkpt>
      <trkpt lat="50.04593" lon="5.77407">
        <ele>520.69</ele>
        <time>2016-09-18T13:23:22Z</time>
      </trkpt>
      <trkpt lat="50.04605" lon="5.77369">
        <ele>520.21</ele>
        <time>2016-09-18T13:23:43Z</time>
      </trkpt>
      <trkpt lat="50.04618" lon="5.77333">
        <ele>519.25</ele>
        <time>2016-09-18T13:24:04Z</time>
      </trkpt>
      <trkpt lat="50.04628" lon="5.77302">
        <ele>519.25</ele>
        <time>2016-09-18T13:24:22Z</time>
      </trkpt>
      <trkpt lat="50.04639" lon="5.77264">
        <ele>518.29</ele>
        <time>2016-09-18T13:24:43Z</time>
      </trkpt>
      <trkpt lat="50.04641" lon="5.77257">
        <ele>518.29</ele>
        <time>2016-09-18T13:24:48Z</time>
      </trkpt>
      <trkpt lat="50.04643" lon="5.7725">
        <ele>518.29</ele>
        <time>2016-09-18T13:24:52Z</time>
      </trkpt>
      <trkpt lat="50.04648" lon="5.77234">
        <ele>518.29</ele>
        <time>2016-09-18T13:25:01Z</time>
      </trkpt>
      <trkpt lat="50.04655" lon="5.77203">
        <ele>518.29</ele>
        <time>2016-09-18T13:25:18Z</time>
      </trkpt>
      <trkpt lat="50.04656" lon="5.77169">
        <ele>518.29</ele>
        <time>2016-09-18T13:25:36Z</time>
      </trkpt>
      <trkpt lat="50.04651" lon="5.77133">
        <ele>518.29</ele>
        <time>2016-09-18T13:25:57Z</time>
      </trkpt>
      <trkpt lat="50.04644" lon="5.77103">
        <ele>519.73</ele>
        <time>2016-09-18T13:26:16Z</time>
      </trkpt>
      <trkpt lat="50.04638" lon="5.77072">
        <ele>520.21</ele>
        <time>2016-09-18T13:26:34Z</time>
      </trkpt>
      <trkpt lat="50.04635" lon="5.7704">
        <ele>521.17</ele>
        <time>2016-09-18T13:26:53Z</time>
      </trkpt>
      <trkpt lat="50.04635" lon="5.77033">
        <ele>521.17</ele>
        <time>2016-09-18T13:27:08Z</time>
      </trkpt>
      <trkpt lat="50.04634" lon="5.77016">
        <ele>521.65</ele>
        <time>2016-09-18T13:27:22Z</time>
      </trkpt>
      <trkpt lat="50.04634" lon="5.76989">
        <ele>522.61</ele>
        <time>2016-09-18T13:27:37Z</time>
      </trkpt>
      <trkpt lat="50.04635" lon="5.76956">
        <ele>524.06</ele>
        <time>2016-09-18T13:27:55Z</time>
      </trkpt>
      <trkpt lat="50.04637" lon="5.76926">
        <ele>525.02</ele>
        <time>2016-09-18T13:28:11Z</time>
      </trkpt>
      <trkpt lat="50.04638" lon="5.76913">
        <ele>525.5</ele>
        <time>2016-09-18T13:28:18Z</time>
      </trkpt>
      <trkpt lat="50.04639" lon="5.76905">
        <ele>525.5</ele>
        <time>2016-09-18T13:28:23Z</time>
      </trkpt>
      <trkpt lat="50.04638" lon="5.76893">
        <ele>525.98</ele>
        <time>2016-09-18T13:28:30Z</time>
      </trkpt>
      <trkpt lat="50.04637" lon="5.76862">
        <ele>526.94</ele>
        <time>2016-09-18T13:28:47Z</time>
      </trkpt>
      <trkpt lat="50.04637" lon="5.76858">
        <ele>526.94</ele>
        <time>2016-09-18T13:28:49Z</time>
      </trkpt>
      <trkpt lat="50.04639" lon="5.7683">
        <ele>527.42</ele>
        <time>2016-09-18T13:29:05Z</time>
      </trkpt>
      <trkpt lat="50.04639" lon="5.7682">
        <ele>527.42</ele>
        <time>2016-09-18T13:29:11Z</time>
      </trkpt>
      <trkpt lat="50.0464" lon="5.768">
        <ele>527.9</ele>
        <time>2016-09-18T13:29:21Z</time>
      </trkpt>
      <trkpt lat="50.04641" lon="5.76762">
        <ele>528.38</ele>
        <time>2016-09-18T13:29:41Z</time>
      </trkpt>
      <trkpt lat="50.04643" lon="5.76728">
        <ele>528.38</ele>
        <time>2016-09-18T13:29:59Z</time>
      </trkpt>
      <trkpt lat="50.04648" lon="5.76693">
        <ele>528.38</ele>
        <time>2016-09-18T13:30:19Z</time>
      </trkpt>
      <trkpt lat="50.04648" lon="5.76689">
        <ele>528.38</ele>
        <time>2016-09-18T13:30:21Z</time>
      </trkpt>
      <trkpt lat="50.04651" lon="5.76664">
        <ele>528.38</ele>
        <time>2016-09-18T13:30:36Z</time>
      </trkpt>
      <trkpt lat="50.04654" lon="5.76639">
        <ele>527.42</ele>
        <time>2016-09-18T13:30:51Z</time>
      </trkpt>
      <trkpt lat="50.04655" lon="5.7662">
        <ele>527.42</ele>
        <time>2016-09-18T13:31:01Z</time>
      </trkpt>
      <trkpt lat="50.04653" lon="5.76588">
        <ele>526.94</ele>
        <time>2016-09-18T13:31:17Z</time>
      </trkpt>
      <trkpt lat="50.04653" lon="5.76586">
        <ele>526.94</ele>
        <time>2016-09-18T13:31:18Z</time>
      </trkpt>
      <trkpt lat="50.04653" lon="5.76551">
        <ele>526.46</ele>
        <time>2016-09-18T13:31:37Z</time>
      </trkpt>
      <trkpt lat="50.04651" lon="5.76519">
        <ele>525.5</ele>
        <time>2016-09-18T13:31:53Z</time>
      </trkpt>
      <trkpt lat="50.0465" lon="5.76507">
        <ele>525.02</ele>
        <time>2016-09-18T13:32:00Z</time>
      </trkpt>
      <trkpt lat="50.04644" lon="5.76471">
        <ele>524.06</ele>
        <time>2016-09-18T13:32:19Z</time>
      </trkpt>
      <trkpt lat="50.04636" lon="5.76435">
        <ele>523.09</ele>
        <time>2016-09-18T13:32:38Z</time>
      </trkpt>
      <trkpt lat="50.0463" lon="5.76403">
        <ele>521.65</ele>
        <time>2016-09-18T13:32:56Z</time>
      </trkpt>
      <trkpt lat="50.04625" lon="5.76368">
        <ele>520.21</ele>
        <time>2016-09-18T13:33:15Z</time>
      </trkpt>
      <trkpt lat="50.04626" lon="5.76336">
        <ele>519.25</ele>
        <time>2016-09-18T13:33:33Z</time>
      </trkpt>
      <trkpt lat="50.04628" lon="5.76293">
        <ele>517.33</ele>
        <time>2016-09-18T13:33:51Z</time>
      </trkpt>
      <trkpt lat="50.04622" lon="5.76252">
        <ele>516.37</ele>
        <time>2016-09-18T13:34:12Z</time>
      </trkpt>
      <trkpt lat="50.0462" lon="5.76236">
        <ele>514.92</ele>
        <time>2016-09-18T13:34:26Z</time>
      </trkpt>
      <trkpt lat="50.04621" lon="5.76227">
        <ele>514.44</ele>
        <time>2016-09-18T13:34:34Z</time>
      </trkpt>
      <trkpt lat="50.04619" lon="5.76201">
        <ele>513.96</ele>
        <time>2016-09-18T13:34:49Z</time>
      </trkpt>
      <trkpt lat="50.04612" lon="5.76164">
        <ele>513</ele>
        <time>2016-09-18T13:35:10Z</time>
      </trkpt>
      <trkpt lat="50.04612" lon="5.76162">
        <ele>513</ele>
        <time>2016-09-18T13:35:11Z</time>
      </trkpt>
      <trkpt lat="50.04611" lon="5.76152">
        <ele>512.52</ele>
        <time>2016-09-18T13:35:16Z</time>
      </trkpt>
      <trkpt lat="50.04609" lon="5.76129">
        <ele>512.04</ele>
        <time>2016-09-18T13:35:28Z</time>
      </trkpt>
      <trkpt lat="50.04608" lon="5.76113">
        <ele>511.56</ele>
        <time>2016-09-18T13:35:35Z</time>
      </trkpt>
      <trkpt lat="50.04607" lon="5.76067">
        <ele>509.64</ele>
        <time>2016-09-18T13:35:57Z</time>
      </trkpt>
      <trkpt lat="50.04607" lon="5.76034">
        <ele>508.19</ele>
        <time>2016-09-18T13:36:14Z</time>
      </trkpt>
      <trkpt lat="50.04603" lon="5.76029">
        <ele>508.19</ele>
        <time>2016-09-18T13:36:25Z</time>
      </trkpt>
      <trkpt lat="50.04602" lon="5.76028">
        <ele>508.19</ele>
        <time>2016-09-18T13:36:36Z</time>
      </trkpt>
      <trkpt lat="50.04601" lon="5.76029">
        <ele>508.19</ele>
        <time>2016-09-18T13:36:58Z</time>
      </trkpt>
      <trkpt lat="50.04602" lon="5.76029">
        <ele>508.19</ele>
        <time>2016-09-18T13:37:05Z</time>
      </trkpt>
      <trkpt lat="50.04606" lon="5.76009">
        <ele>507.71</ele>
        <time>2016-09-18T13:37:17Z</time>
      </trkpt>
      <trkpt lat="50.04603" lon="5.75959">
        <ele>507.23</ele>
        <time>2016-09-18T13:37:39Z</time>
      </trkpt>
      <trkpt lat="50.04608" lon="5.75907">
        <ele>506.75</ele>
        <time>2016-09-18T13:38:01Z</time>
      </trkpt>
      <trkpt lat="50.04623" lon="5.75859">
        <ele>505.79</ele>
        <time>2016-09-18T13:38:24Z</time>
      </trkpt>
      <trkpt lat="50.04643" lon="5.75817">
        <ele>505.79</ele>
        <time>2016-09-18T13:38:45Z</time>
      </trkpt>
      <trkpt lat="50.04655" lon="5.75777">
        <ele>505.31</ele>
        <time>2016-09-18T13:39:04Z</time>
      </trkpt>
      <trkpt lat="50.04662" lon="5.75724">
        <ele>505.31</ele>
        <time>2016-09-18T13:39:26Z</time>
      </trkpt>
      <trkpt lat="50.04663" lon="5.7569">
        <ele>506.75</ele>
        <time>2016-09-18T13:39:40Z</time>
      </trkpt>
      <trkpt lat="50.04663" lon="5.75635">
        <ele>507.23</ele>
        <time>2016-09-18T13:40:03Z</time>
      </trkpt>
      <trkpt lat="50.04662" lon="5.7558">
        <ele>508.67</ele>
        <time>2016-09-18T13:40:27Z</time>
      </trkpt>
      <trkpt lat="50.04655" lon="5.75532">
        <ele>509.16</ele>
        <time>2016-09-18T13:40:48Z</time>
      </trkpt>
      <trkpt lat="50.04639" lon="5.75487">
        <ele>510.12</ele>
        <time>2016-09-18T13:41:10Z</time>
      </trkpt>
      <trkpt lat="50.04622" lon="5.75446">
        <ele>511.08</ele>
        <time>2016-09-18T13:41:31Z</time>
      </trkpt>
      <trkpt lat="50.046" lon="5.75399">
        <ele>512.04</ele>
        <time>2016-09-18T13:41:56Z</time>
      </trkpt>
      <trkpt lat="50.04583" lon="5.75362">
        <ele>512.52</ele>
        <time>2016-09-18T13:42:16Z</time>
      </trkpt>
      <trkpt lat="50.0457" lon="5.75334">
        <ele>513.48</ele>
        <time>2016-09-18T13:42:32Z</time>
      </trkpt>
      <trkpt lat="50.04553" lon="5.75312">
        <ele>513.96</ele>
        <time>2016-09-18T13:42:50Z</time>
      </trkpt>
      <trkpt lat="50.0454" lon="5.75301">
        <ele>513.96</ele>
        <time>2016-09-18T13:43:02Z</time>
      </trkpt>
      <trkpt lat="50.04521" lon="5.75281">
        <ele>513.96</ele>
        <time>2016-09-18T13:43:20Z</time>
      </trkpt>
      <trkpt lat="50.04505" lon="5.75257">
        <ele>513.96</ele>
        <time>2016-09-18T13:43:37Z</time>
      </trkpt>
      <trkpt lat="50.04503" lon="5.75252">
        <ele>513.96</ele>
        <time>2016-09-18T13:43:40Z</time>
      </trkpt>
      <trkpt lat="50.04499" lon="5.75244">
        <ele>514.44</ele>
        <time>2016-09-18T13:43:45Z</time>
      </trkpt>
      <trkpt lat="50.04483" lon="5.75212">
        <ele>514.92</ele>
        <time>2016-09-18T13:44:05Z</time>
      </trkpt>
      <trkpt lat="50.04467" lon="5.75184">
        <ele>514.92</ele>
        <time>2016-09-18T13:44:23Z</time>
      </trkpt>
      <trkpt lat="50.04451" lon="5.75151">
        <ele>515.4</ele>
        <time>2016-09-18T13:44:44Z</time>
      </trkpt>
      <trkpt lat="50.04441" lon="5.75134">
        <ele>514.92</ele>
        <time>2016-09-18T13:44:56Z</time>
      </trkpt>
      <trkpt lat="50.04427" lon="5.75107">
        <ele>515.4</ele>
        <time>2016-09-18T13:45:16Z</time>
      </trkpt>
      <trkpt lat="50.0442" lon="5.75094">
        <ele>515.88</ele>
        <time>2016-09-18T13:45:30Z</time>
      </trkpt>
      <trkpt lat="50.04416" lon="5.7509">
        <ele>515.88</ele>
        <time>2016-09-18T13:45:45Z</time>
      </trkpt>
      <trkpt lat="50.04418" lon="5.75087">
        <ele>515.4</ele>
        <time>2016-09-18T13:46:03Z</time>
      </trkpt>
      <trkpt lat="50.04418" lon="5.75084">
        <ele>515.4</ele>
        <time>2016-09-18T13:46:17Z</time>
      </trkpt>
      <trkpt lat="50.04413" lon="5.75081">
        <ele>515.88</ele>
        <time>2016-09-18T13:46:29Z</time>
      </trkpt>
      <trkpt lat="50.04409" lon="5.75074">
        <ele>515.88</ele>
        <time>2016-09-18T13:46:42Z</time>
      </trkpt>
      <trkpt lat="50.04407" lon="5.75067">
        <ele>515.88</ele>
        <time>2016-09-18T13:46:52Z</time>
      </trkpt>
      <trkpt lat="50.044" lon="5.7506">
        <ele>515.88</ele>
        <time>2016-09-18T13:47:08Z</time>
      </trkpt>
      <trkpt lat="50.044" lon="5.75059">
        <ele>515.88</ele>
        <time>2016-09-18T13:47:11Z</time>
      </trkpt>
      <trkpt lat="50.04402" lon="5.75059">
        <ele>515.88</ele>
        <time>2016-09-18T13:47:20Z</time>
      </trkpt>
      <trkpt lat="50.04402" lon="5.7506">
        <ele>514.92</ele>
        <time>2016-09-18T13:47:29Z</time>
      </trkpt>
      <trkpt lat="50.04401" lon="5.7506">
        <ele>514.44</ele>
        <time>2016-09-18T13:47:36Z</time>
      </trkpt>
      <trkpt lat="50.04401" lon="5.7506">
        <ele>514.44</ele>
        <time>2016-09-18T13:47:46Z</time>
      </trkpt>
      <trkpt lat="50.04402" lon="5.75061">
        <ele>516.37</ele>
        <time>2016-09-18T13:48:08Z</time>
      </trkpt>
    </trkseg>
  </trk>
</gpx>